sensor_id;sensor_type;location;lat;lon;timestamp;temperature;humidity
2571;DHT22;1295;51.130;6.732;2022-10-19T00:01:31;15.90;99.90
2571;DHT22;1295;51.130;6.732;2022-10-19T00:03:57;15.90;99.90
2571;DHT22;1295;51.130;6.732;2022-10-19T00:06:24;15.90;99.90
2571;DHT22;1295;51.130;6.732;2022-10-19T00:08:49;15.90;99.90
2571;DHT22;1295;51.130;6.732;2022-10-19T00:11:14;15.90;99.90
2571;DHT22;1295;51.130;6.732;2022-10-19T00:13:40;15.90;99.90
2571;DHT22;1295;51.130;6.732;2022-10-19T00:16:09;15.80;99.90
2571;DHT22;1295;51.130;6.732;2022-10-19T00:18:34;15.80;99.90
2571;DHT22;1295;51.130;6.732;2022-10-19T00:21:02;15.80;99.90
2571;DHT22;1295;51.130;6.732;2022-10-19T00:23:26;15.80;99.90
2571;DHT22;1295;51.130;6.732;2022-10-19T00:25:53;15.80;99.90
2571;DHT22;1295;51.130;6.732;2022-10-19T00:28:18;15.80;99.90
2571;DHT22;1295;51.130;6.732;2022-10-19T00:30:44;15.70;99.90
2571;DHT22;1295;51.130;6.732;2022-10-19T00:33:10;15.70;99.90
2571;DHT22;1295;51.130;6.732;2022-10-19T00:35:38;15.70;99.90
2571;DHT22;1295;51.130;6.732;2022-10-19T00:38:01;15.70;99.90
2571;DHT22;1295;51.130;6.732;2022-10-19T00:40:36;15.70;99.90
2571;DHT22;1295;51.130;6.732;2022-10-19T00:43:01;15.70;99.90
2571;DHT22;1295;51.130;6.732;2022-10-19T00:45:27;15.70;99.90
2571;DHT22;1295;51.130;6.732;2022-10-19T00:47:52;15.60;99.90
2571;DHT22;1295;51.130;6.732;2022-10-19T00:50:18;15.60;99.90
2571;DHT22;1295;51.130;6.732;2022-10-19T00:52:43;15.60;99.90
2571;DHT22;1295;51.130;6.732;2022-10-19T00:55:10;15.60;99.90
2571;DHT22;1295;51.130;6.732;2022-10-19T00:57:36;15.60;99.90
2571;DHT22;1295;51.130;6.732;2022-10-19T01:00:03;15.50;99.90
2571;DHT22;1295;51.130;6.732;2022-10-19T01:02:28;15.50;99.90
2571;DHT22;1295;51.130;6.732;2022-10-19T01:04:53;15.50;99.90
2571;DHT22;1295;51.130;6.732;2022-10-19T01:07:19;15.50;99.90
2571;DHT22;1295;51.130;6.732;2022-10-19T01:09:45;15.50;99.90
2571;DHT22;1295;51.130;6.732;2022-10-19T01:12:31;15.50;99.90
2571;DHT22;1295;51.130;6.732;2022-10-19T01:15:02;15.50;99.90
2571;DHT22;1295;51.130;6.732;2022-10-19T01:17:44;15.50;99.90
2571;DHT22;1295;51.130;6.732;2022-10-19T01:20:44;15.40;99.90
2571;DHT22;1295;51.130;6.732;2022-10-19T01:23:17;15.40;99.90
2571;DHT22;1295;51.130;6.732;2022-10-19T01:28:40;15.40;99.90
2571;DHT22;1295;51.130;6.732;2022-10-19T01:31:05;15.40;99.90
2571;DHT22;1295;51.130;6.732;2022-10-19T01:34:08;15.30;99.90
2571;DHT22;1295;51.130;6.732;2022-10-19T01:36:22;15.30;99.90
2571;DHT22;1295;51.130;6.732;2022-10-19T01:39:09;15.30;99.90
2571;DHT22;1295;51.130;6.732;2022-10-19T01:41:50;15.30;99.90
2571;DHT22;1295;51.130;6.732;2022-10-19T01:44:18;15.30;99.90
2571;DHT22;1295;51.130;6.732;2022-10-19T01:46:44;15.30;99.90
2571;DHT22;1295;51.130;6.732;2022-10-19T01:49:11;15.20;99.90
2571;DHT22;1295;51.130;6.732;2022-10-19T01:51:37;15.20;99.90
2571;DHT22;1295;51.130;6.732;2022-10-19T01:54:03;15.20;99.90
2571;DHT22;1295;51.130;6.732;2022-10-19T01:56:27;15.20;99.90
2571;DHT22;1295;51.130;6.732;2022-10-19T01:58:55;15.20;99.90
2571;DHT22;1295;51.130;6.732;2022-10-19T02:01:19;15.10;99.90
2571;DHT22;1295;51.130;6.732;2022-10-19T02:03:45;15.20;99.90
2571;DHT22;1295;51.130;6.732;2022-10-19T02:06:11;15.10;99.90
2571;DHT22;1295;51.130;6.732;2022-10-19T02:08:39;15.10;99.90
2571;DHT22;1295;51.130;6.732;2022-10-19T02:11:03;15.10;99.90
2571;DHT22;1295;51.130;6.732;2022-10-19T02:13:28;15.10;99.90
2571;DHT22;1295;51.130;6.732;2022-10-19T02:15:54;15.10;99.90
2571;DHT22;1295;51.130;6.732;2022-10-19T02:18:28;15.10;99.90
2571;DHT22;1295;51.130;6.732;2022-10-19T02:20:49;15.10;99.90
2571;DHT22;1295;51.130;6.732;2022-10-19T02:23:15;15.00;99.90
2571;DHT22;1295;51.130;6.732;2022-10-19T02:25:41;15.00;99.90
2571;DHT22;1295;51.130;6.732;2022-10-19T02:28:07;15.00;99.90
2571;DHT22;1295;51.130;6.732;2022-10-19T02:30:33;15.00;99.90
2571;DHT22;1295;51.130;6.732;2022-10-19T02:32:59;15.00;99.90
2571;DHT22;1295;51.130;6.732;2022-10-19T02:35:24;15.00;99.90
2571;DHT22;1295;51.130;6.732;2022-10-19T02:37:50;14.90;99.90
2571;DHT22;1295;51.130;6.732;2022-10-19T02:40:16;14.90;99.90
2571;DHT22;1295;51.130;6.732;2022-10-19T02:42:44;14.90;99.90
2571;DHT22;1295;51.130;6.732;2022-10-19T02:45:12;14.90;99.90
2571;DHT22;1295;51.130;6.732;2022-10-19T02:47:37;14.90;99.90
2571;DHT22;1295;51.130;6.732;2022-10-19T02:50:03;14.80;99.90
2571;DHT22;1295;51.130;6.732;2022-10-19T02:52:28;14.90;99.90
2571;DHT22;1295;51.130;6.732;2022-10-19T02:54:55;14.80;99.90
2571;DHT22;1295;51.130;6.732;2022-10-19T02:57:21;14.80;99.90
2571;DHT22;1295;51.130;6.732;2022-10-19T02:59:46;14.80;99.90
2571;DHT22;1295;51.130;6.732;2022-10-19T03:02:12;14.80;99.90
2571;DHT22;1295;51.130;6.732;2022-10-19T03:04:37;14.80;99.90
2571;DHT22;1295;51.130;6.732;2022-10-19T03:07:03;14.80;99.90
2571;DHT22;1295;51.130;6.732;2022-10-19T03:09:29;14.70;99.90
2571;DHT22;1295;51.130;6.732;2022-10-19T03:11:54;14.70;99.90
2571;DHT22;1295;51.130;6.732;2022-10-19T03:14:20;14.70;99.90
2571;DHT22;1295;51.130;6.732;2022-10-19T03:16:45;14.70;99.90
2571;DHT22;1295;51.130;6.732;2022-10-19T03:19:11;14.70;99.90
2571;DHT22;1295;51.130;6.732;2022-10-19T03:21:37;14.70;99.90
2571;DHT22;1295;51.130;6.732;2022-10-19T03:24:04;14.60;99.90
2571;DHT22;1295;51.130;6.732;2022-10-19T03:26:30;14.60;99.90
2571;DHT22;1295;51.130;6.732;2022-10-19T03:28:56;14.60;99.90
2571;DHT22;1295;51.130;6.732;2022-10-19T03:31:21;14.60;99.90
2571;DHT22;1295;51.130;6.732;2022-10-19T03:33:47;14.60;99.90
2571;DHT22;1295;51.130;6.732;2022-10-19T03:36:15;14.60;99.90
2571;DHT22;1295;51.130;6.732;2022-10-19T03:38:39;14.60;99.90
2571;DHT22;1295;51.130;6.732;2022-10-19T03:41:06;14.60;99.90
2571;DHT22;1295;51.130;6.732;2022-10-19T03:43:31;14.50;99.90
2571;DHT22;1295;51.130;6.732;2022-10-19T03:45:57;14.50;99.90
2571;DHT22;1295;51.130;6.732;2022-10-19T03:48:23;14.50;99.90
2571;DHT22;1295;51.130;6.732;2022-10-19T03:50:56;14.50;99.90
2571;DHT22;1295;51.130;6.732;2022-10-19T03:53:14;14.50;99.90
2571;DHT22;1295;51.130;6.732;2022-10-19T03:55:40;14.50;99.90
2571;DHT22;1295;51.130;6.732;2022-10-19T03:58:05;14.50;99.90
2571;DHT22;1295;51.130;6.732;2022-10-19T04:00:31;14.40;99.90
2571;DHT22;1295;51.130;6.732;2022-10-19T04:02:57;14.40;99.90
2571;DHT22;1295;51.130;6.732;2022-10-19T04:05:27;14.40;99.90
2571;DHT22;1295;51.130;6.732;2022-10-19T04:08:03;14.40;99.90
2571;DHT22;1295;51.130;6.732;2022-10-19T04:10:29;14.40;99.90
2571;DHT22;1295;51.130;6.732;2022-10-19T04:12:55;14.40;99.90
2571;DHT22;1295;51.130;6.732;2022-10-19T04:15:21;14.30;99.90
2571;DHT22;1295;51.130;6.732;2022-10-19T04:17:46;14.40;99.90
2571;DHT22;1295;51.130;6.732;2022-10-19T04:20:12;14.30;99.90
2571;DHT22;1295;51.130;6.732;2022-10-19T04:22:37;14.30;99.90
2571;DHT22;1295;51.130;6.732;2022-10-19T04:25:04;14.30;99.90
2571;DHT22;1295;51.130;6.732;2022-10-19T04:27:30;14.30;99.90
2571;DHT22;1295;51.130;6.732;2022-10-19T04:29:56;14.20;99.90
2571;DHT22;1295;51.130;6.732;2022-10-19T04:32:27;14.20;99.90
2571;DHT22;1295;51.130;6.732;2022-10-19T04:35:04;14.20;99.90
2571;DHT22;1295;51.130;6.732;2022-10-19T04:37:30;14.20;99.90
2571;DHT22;1295;51.130;6.732;2022-10-19T04:39:56;14.20;99.90
2571;DHT22;1295;51.130;6.732;2022-10-19T04:42:22;14.20;99.90
2571;DHT22;1295;51.130;6.732;2022-10-19T04:44:48;14.20;99.90
2571;DHT22;1295;51.130;6.732;2022-10-19T04:47:13;14.20;99.90
2571;DHT22;1295;51.130;6.732;2022-10-19T04:49:39;14.10;99.90
2571;DHT22;1295;51.130;6.732;2022-10-19T04:52:04;14.10;99.90
2571;DHT22;1295;51.130;6.732;2022-10-19T04:54:30;14.10;99.90
2571;DHT22;1295;51.130;6.732;2022-10-19T04:56:56;14.10;99.90
2571;DHT22;1295;51.130;6.732;2022-10-19T04:59:21;14.10;99.90
2571;DHT22;1295;51.130;6.732;2022-10-19T05:01:47;14.10;99.90
2571;DHT22;1295;51.130;6.732;2022-10-19T05:04:13;14.10;99.90
2571;DHT22;1295;51.130;6.732;2022-10-19T05:06:38;14.00;99.90
2571;DHT22;1295;51.130;6.732;2022-10-19T05:09:04;14.00;99.90
2571;DHT22;1295;51.130;6.732;2022-10-19T05:11:30;14.00;99.90
2571;DHT22;1295;51.130;6.732;2022-10-19T05:13:55;14.00;99.90
2571;DHT22;1295;51.130;6.732;2022-10-19T05:16:21;14.00;99.90
2571;DHT22;1295;51.130;6.732;2022-10-19T05:18:48;14.00;99.90
2571;DHT22;1295;51.130;6.732;2022-10-19T05:21:13;14.00;99.90
2571;DHT22;1295;51.130;6.732;2022-10-19T05:23:39;14.00;99.90
2571;DHT22;1295;51.130;6.732;2022-10-19T05:26:06;13.90;99.90
2571;DHT22;1295;51.130;6.732;2022-10-19T05:28:31;13.90;99.90
2571;DHT22;1295;51.130;6.732;2022-10-19T05:31:03;13.90;99.90
2571;DHT22;1295;51.130;6.732;2022-10-19T05:33:22;13.90;99.90
2571;DHT22;1295;51.130;6.732;2022-10-19T05:35:48;13.80;99.90
2571;DHT22;1295;51.130;6.732;2022-10-19T05:38:14;13.80;99.90
2571;DHT22;1295;51.130;6.732;2022-10-19T05:40:43;13.80;99.90
2571;DHT22;1295;51.130;6.732;2022-10-19T05:43:08;13.80;99.90
2571;DHT22;1295;51.130;6.732;2022-10-19T05:45:34;13.80;99.90
2571;DHT22;1295;51.130;6.732;2022-10-19T05:47:59;13.80;99.90
2571;DHT22;1295;51.130;6.732;2022-10-19T05:50:26;13.80;99.90
2571;DHT22;1295;51.130;6.732;2022-10-19T05:52:54;13.80;99.90
2571;DHT22;1295;51.130;6.732;2022-10-19T05:55:20;13.80;99.90
2571;DHT22;1295;51.130;6.732;2022-10-19T05:57:46;13.70;99.90
2571;DHT22;1295;51.130;6.732;2022-10-19T06:00:12;13.80;99.90
2571;DHT22;1295;51.130;6.732;2022-10-19T06:02:39;13.70;99.90
2571;DHT22;1295;51.130;6.732;2022-10-19T06:05:06;13.70;99.90
2571;DHT22;1295;51.130;6.732;2022-10-19T06:07:32;13.70;99.90
2571;DHT22;1295;51.130;6.732;2022-10-19T06:09:58;13.70;99.90
2571;DHT22;1295;51.130;6.732;2022-10-19T06:12:25;13.60;99.90
2571;DHT22;1295;51.130;6.732;2022-10-19T06:14:50;13.60;99.90
2571;DHT22;1295;51.130;6.732;2022-10-19T06:17:16;13.70;99.90
2571;DHT22;1295;51.130;6.732;2022-10-19T06:19:42;13.60;99.90
2571;DHT22;1295;51.130;6.732;2022-10-19T06:22:08;13.60;99.90
2571;DHT22;1295;51.130;6.732;2022-10-19T06:24:34;13.60;99.90
2571;DHT22;1295;51.130;6.732;2022-10-19T06:26:59;13.60;99.90
2571;DHT22;1295;51.130;6.732;2022-10-19T06:29:25;13.60;99.90
2571;DHT22;1295;51.130;6.732;2022-10-19T06:31:50;13.60;99.90
2571;DHT22;1295;51.130;6.732;2022-10-19T06:34:16;13.60;99.90
2571;DHT22;1295;51.130;6.732;2022-10-19T06:36:42;13.50;99.90
2571;DHT22;1295;51.130;6.732;2022-10-19T06:39:07;13.50;99.90
2571;DHT22;1295;51.130;6.732;2022-10-19T06:41:33;13.50;99.90
2571;DHT22;1295;51.130;6.732;2022-10-19T06:43:59;13.50;99.90
2571;DHT22;1295;51.130;6.732;2022-10-19T06:46:24;13.50;99.90
2571;DHT22;1295;51.130;6.732;2022-10-19T06:48:52;13.50;99.90
2571;DHT22;1295;51.130;6.732;2022-10-19T06:51:17;13.50;99.90
2571;DHT22;1295;51.130;6.732;2022-10-19T06:53:43;13.50;99.90
2571;DHT22;1295;51.130;6.732;2022-10-19T06:56:09;13.50;99.90
2571;DHT22;1295;51.130;6.732;2022-10-19T06:58:36;13.40;99.90
2571;DHT22;1295;51.130;6.732;2022-10-19T07:01:03;13.40;99.90
2571;DHT22;1295;51.130;6.732;2022-10-19T07:03:28;13.40;99.90
2571;DHT22;1295;51.130;6.732;2022-10-19T07:05:56;13.40;99.90
2571;DHT22;1295;51.130;6.732;2022-10-19T07:08:27;13.40;99.90
2571;DHT22;1295;51.130;6.732;2022-10-19T07:10:53;13.40;99.90
2571;DHT22;1295;51.130;6.732;2022-10-19T07:13:18;13.40;99.90
2571;DHT22;1295;51.130;6.732;2022-10-19T07:15:44;13.30;99.90
2571;DHT22;1295;51.130;6.732;2022-10-19T07:18:09;13.30;99.90
2571;DHT22;1295;51.130;6.732;2022-10-19T07:20:35;13.30;99.90
2571;DHT22;1295;51.130;6.732;2022-10-19T07:23:01;13.30;99.90
2571;DHT22;1295;51.130;6.732;2022-10-19T07:25:27;13.30;99.90
2571;DHT22;1295;51.130;6.732;2022-10-19T07:27:52;13.40;99.90
2571;DHT22;1295;51.130;6.732;2022-10-19T07:30:18;13.30;99.90
2571;DHT22;1295;51.130;6.732;2022-10-19T07:32:44;13.30;99.90
2571;DHT22;1295;51.130;6.732;2022-10-19T07:35:10;13.30;99.90
2571;DHT22;1295;51.130;6.732;2022-10-19T07:37:36;13.40;99.90
2571;DHT22;1295;51.130;6.732;2022-10-19T07:40:10;13.40;99.90
2571;DHT22;1295;51.130;6.732;2022-10-19T07:42:36;13.40;99.90
2571;DHT22;1295;51.130;6.732;2022-10-19T07:45:02;13.40;99.90
2571;DHT22;1295;51.130;6.732;2022-10-19T07:47:28;13.30;99.90
2571;DHT22;1295;51.130;6.732;2022-10-19T07:49:54;13.40;99.90
2571;DHT22;1295;51.130;6.732;2022-10-19T07:52:19;13.40;99.90
2571;DHT22;1295;51.130;6.732;2022-10-19T07:54:45;13.30;99.90
2571;DHT22;1295;51.130;6.732;2022-10-19T07:57:11;13.50;99.90
2571;DHT22;1295;51.130;6.732;2022-10-19T07:59:36;13.60;99.90
2571;DHT22;1295;51.130;6.732;2022-10-19T08:02:02;13.70;99.90
2571;DHT22;1295;51.130;6.732;2022-10-19T08:04:28;13.80;99.90
2571;DHT22;1295;51.130;6.732;2022-10-19T08:06:53;13.70;99.90
2571;DHT22;1295;51.130;6.732;2022-10-19T08:09:24;14.00;99.90
2571;DHT22;1295;51.130;6.732;2022-10-19T08:11:51;14.00;99.90
2571;DHT22;1295;51.130;6.732;2022-10-19T08:14:16;14.00;99.90
2571;DHT22;1295;51.130;6.732;2022-10-19T08:16:42;14.00;99.90
2571;DHT22;1295;51.130;6.732;2022-10-19T08:19:08;13.80;99.90
2571;DHT22;1295;51.130;6.732;2022-10-19T08:21:34;14.10;99.90
2571;DHT22;1295;51.130;6.732;2022-10-19T08:24:00;14.30;99.90
2571;DHT22;1295;51.130;6.732;2022-10-19T08:26:28;14.30;99.90
2571;DHT22;1295;51.130;6.732;2022-10-19T08:28:58;14.30;99.90
2571;DHT22;1295;51.130;6.732;2022-10-19T08:31:24;14.20;99.90
2571;DHT22;1295;51.130;6.732;2022-10-19T08:33:50;14.00;99.90
2571;DHT22;1295;51.130;6.732;2022-10-19T08:36:15;14.30;99.90
2571;DHT22;1295;51.130;6.732;2022-10-19T08:38:41;14.40;99.90
2571;DHT22;1295;51.130;6.732;2022-10-19T08:46:40;14.50;99.90
2571;DHT22;1295;51.130;6.732;2022-10-19T08:49:03;14.50;99.90
2571;DHT22;1295;51.130;6.732;2022-10-19T08:51:30;14.20;99.90
2571;DHT22;1295;51.130;6.732;2022-10-19T08:53:54;14.70;99.90
2571;DHT22;1295;51.130;6.732;2022-10-19T08:56:30;14.70;99.90
2571;DHT22;1295;51.130;6.732;2022-10-19T08:59:08;14.50;99.90
2571;DHT22;1295;51.130;6.732;2022-10-19T09:01:42;14.40;99.90
2571;DHT22;1295;51.130;6.732;2022-10-19T09:04:17;14.40;99.90
2571;DHT22;1295;51.130;6.732;2022-10-19T09:06:46;14.60;99.90
2571;DHT22;1295;51.130;6.732;2022-10-19T09:09:11;14.40;99.90
2571;DHT22;1295;51.130;6.732;2022-10-19T09:11:37;14.40;99.90
2571;DHT22;1295;51.130;6.732;2022-10-19T09:14:09;14.50;99.90
2571;DHT22;1295;51.130;6.732;2022-10-19T09:16:32;14.90;99.90
2571;DHT22;1295;51.130;6.732;2022-10-19T09:18:57;15.10;99.90
2571;DHT22;1295;51.130;6.732;2022-10-19T09:21:25;15.10;99.90
2571;DHT22;1295;51.130;6.732;2022-10-19T09:24:15;15.50;99.90
2571;DHT22;1295;51.130;6.732;2022-10-19T09:26:39;15.60;99.90
2571;DHT22;1295;51.130;6.732;2022-10-19T09:29:16;15.40;99.90
2571;DHT22;1295;51.130;6.732;2022-10-19T09:31:40;15.40;99.90
2571;DHT22;1295;51.130;6.732;2022-10-19T09:34:10;15.20;99.90
2571;DHT22;1295;51.130;6.732;2022-10-19T09:36:36;15.10;99.90
2571;DHT22;1295;51.130;6.732;2022-10-19T09:38:59;15.10;99.90
2571;DHT22;1295;51.130;6.732;2022-10-19T09:41:25;15.70;99.90
2571;DHT22;1295;51.130;6.732;2022-10-19T09:43:52;15.40;99.90
2571;DHT22;1295;51.130;6.732;2022-10-19T09:46:25;15.50;99.90
2571;DHT22;1295;51.130;6.732;2022-10-19T09:48:49;15.60;99.90
2571;DHT22;1295;51.130;6.732;2022-10-19T09:51:15;15.40;99.90
2571;DHT22;1295;51.130;6.732;2022-10-19T09:53:45;15.50;99.90
2571;DHT22;1295;51.130;6.732;2022-10-19T09:56:16;15.60;99.90
2571;DHT22;1295;51.130;6.732;2022-10-19T09:58:36;16.00;99.90
2571;DHT22;1295;51.130;6.732;2022-10-19T10:01:02;16.30;99.90
2571;DHT22;1295;51.130;6.732;2022-10-19T10:03:34;16.40;99.90
2571;DHT22;1295;51.130;6.732;2022-10-19T10:06:03;16.60;99.90
2571;DHT22;1295;51.130;6.732;2022-10-19T10:08:29;16.80;99.90
2571;DHT22;1295;51.130;6.732;2022-10-19T10:11:05;16.60;99.90
2571;DHT22;1295;51.130;6.732;2022-10-19T10:13:29;16.60;99.90
2571;DHT22;1295;51.130;6.732;2022-10-19T10:15:57;16.50;99.90
2571;DHT22;1295;51.130;6.732;2022-10-19T10:18:22;16.40;99.90
2571;DHT22;1295;51.130;6.732;2022-10-19T10:20:56;16.10;99.90
2571;DHT22;1295;51.130;6.732;2022-10-19T10:23:23;16.10;99.90
2571;DHT22;1295;51.130;6.732;2022-10-19T10:25:47;16.60;99.90
2571;DHT22;1295;51.130;6.732;2022-10-19T10:28:18;17.00;99.90
2571;DHT22;1295;51.130;6.732;2022-10-19T10:30:43;17.00;99.90
2571;DHT22;1295;51.130;6.732;2022-10-19T10:33:09;16.80;99.90
2571;DHT22;1295;51.130;6.732;2022-10-19T10:35:35;16.90;99.90
2571;DHT22;1295;51.130;6.732;2022-10-19T10:38:16;16.80;99.90
2571;DHT22;1295;51.130;6.732;2022-10-19T10:40:56;16.80;99.90
2571;DHT22;1295;51.130;6.732;2022-10-19T10:43:28;17.60;99.90
2571;DHT22;1295;51.130;6.732;2022-10-19T10:45:55;17.50;99.90
2571;DHT22;1295;51.130;6.732;2022-10-19T10:48:27;17.30;99.90
2571;DHT22;1295;51.130;6.732;2022-10-19T10:50:51;17.60;99.90
2571;DHT22;1295;51.130;6.732;2022-10-19T10:53:33;16.80;99.90
2571;DHT22;1295;51.130;6.732;2022-10-19T10:55:59;17.20;99.90
2571;DHT22;1295;51.130;6.732;2022-10-19T10:58:36;16.10;99.90
2571;DHT22;1295;51.130;6.732;2022-10-19T11:01:04;16.40;99.90
2571;DHT22;1295;51.130;6.732;2022-10-19T11:03:30;17.30;99.90
2571;DHT22;1295;51.130;6.732;2022-10-19T11:05:57;16.90;99.90
2571;DHT22;1295;51.130;6.732;2022-10-19T11:11:01;17.50;99.90
2571;DHT22;1295;51.130;6.732;2022-10-19T11:13:33;17.70;99.90
2571;DHT22;1295;51.130;6.732;2022-10-19T11:15:59;17.00;99.90
2571;DHT22;1295;51.130;6.732;2022-10-19T11:18:26;16.70;99.90
2571;DHT22;1295;51.130;6.732;2022-10-19T11:21:00;16.80;99.90
2571;DHT22;1295;51.130;6.732;2022-10-19T11:23:29;16.90;99.90
2571;DHT22;1295;51.130;6.732;2022-10-19T11:26:02;18.10;99.90
2571;DHT22;1295;51.130;6.732;2022-10-19T11:28:40;18.00;99.90
2571;DHT22;1295;51.130;6.732;2022-10-19T11:31:09;17.50;99.90
2571;DHT22;1295;51.130;6.732;2022-10-19T11:33:44;17.00;99.90
2571;DHT22;1295;51.130;6.732;2022-10-19T11:36:11;17.20;99.90
2571;DHT22;1295;51.130;6.732;2022-10-19T11:41:15;17.80;99.90
2571;DHT22;1295;51.130;6.732;2022-10-19T11:46:25;17.60;99.90
2571;DHT22;1295;51.130;6.732;2022-10-19T11:49:04;17.80;99.90
2571;DHT22;1295;51.130;6.732;2022-10-19T11:51:46;17.80;99.90
2571;DHT22;1295;51.130;6.732;2022-10-19T11:54:33;18.70;99.90
2571;DHT22;1295;51.130;6.732;2022-10-19T11:57:15;18.50;99.90
2571;DHT22;1295;51.130;6.732;2022-10-19T12:05:15;17.70;99.90
2571;DHT22;1295;51.130;6.732;2022-10-19T12:08:00;18.50;99.90
2571;DHT22;1295;51.130;6.732;2022-10-19T12:10:25;17.90;99.90
2571;DHT22;1295;51.130;6.732;2022-10-19T12:12:50;18.20;99.90
2571;DHT22;1295;51.130;6.732;2022-10-19T12:15:24;17.50;99.90
2571;DHT22;1295;51.130;6.732;2022-10-19T12:17:49;17.50;99.90
2571;DHT22;1295;51.130;6.732;2022-10-19T12:20:16;17.70;99.90
2571;DHT22;1295;51.130;6.732;2022-10-19T12:22:40;18.00;99.90
2571;DHT22;1295;51.130;6.732;2022-10-19T12:25:06;18.50;99.90
2571;DHT22;1295;51.130;6.732;2022-10-19T12:27:34;17.00;99.90
2571;DHT22;1295;51.130;6.732;2022-10-19T12:30:03;16.90;99.90
2571;DHT22;1295;51.130;6.732;2022-10-19T12:32:26;18.00;99.90
2571;DHT22;1295;51.130;6.732;2022-10-19T12:35:02;17.60;99.90
2571;DHT22;1295;51.130;6.732;2022-10-19T12:37:27;17.90;99.90
2571;DHT22;1295;51.130;6.732;2022-10-19T12:39:56;18.40;99.90
2571;DHT22;1295;51.130;6.732;2022-10-19T12:42:40;18.40;99.90
2571;DHT22;1295;51.130;6.732;2022-10-19T12:45:08;19.00;99.90
2571;DHT22;1295;51.130;6.732;2022-10-19T12:47:33;17.90;99.90
2571;DHT22;1295;51.130;6.732;2022-10-19T12:49:59;17.70;99.90
2571;DHT22;1295;51.130;6.732;2022-10-19T12:52:38;18.00;99.90
2571;DHT22;1295;51.130;6.732;2022-10-19T12:55:26;17.30;99.90
2571;DHT22;1295;51.130;6.732;2022-10-19T12:58:00;19.00;99.90
2571;DHT22;1295;51.130;6.732;2022-10-19T13:00:26;18.30;99.90
2571;DHT22;1295;51.130;6.732;2022-10-19T13:02:58;18.00;99.90
2571;DHT22;1295;51.130;6.732;2022-10-19T13:05:23;17.60;99.90
2571;DHT22;1295;51.130;6.732;2022-10-19T13:07:48;17.50;99.90
2571;DHT22;1295;51.130;6.732;2022-10-19T13:10:18;17.30;99.90
2571;DHT22;1295;51.130;6.732;2022-10-19T13:12:44;17.00;99.90
2571;DHT22;1295;51.130;6.732;2022-10-19T13:15:48;17.50;99.90
2571;DHT22;1295;51.130;6.732;2022-10-19T13:17:49;18.20;99.90
2571;DHT22;1295;51.130;6.732;2022-10-19T13:26:30;17.50;99.90
2571;DHT22;1295;51.130;6.732;2022-10-19T13:28:54;17.40;99.90
2571;DHT22;1295;51.130;6.732;2022-10-19T13:31:23;18.30;99.90
2571;DHT22;1295;51.130;6.732;2022-10-19T13:33:47;17.70;99.90
2571;DHT22;1295;51.130;6.732;2022-10-19T13:36:12;17.60;99.90
2571;DHT22;1295;51.130;6.732;2022-10-19T13:39:00;17.40;99.90
2571;DHT22;1295;51.130;6.732;2022-10-19T13:41:44;18.00;99.90
2571;DHT22;1295;51.130;6.732;2022-10-19T13:44:19;17.50;99.90
2571;DHT22;1295;51.130;6.732;2022-10-19T13:47:28;17.50;99.90
2571;DHT22;1295;51.130;6.732;2022-10-19T13:49:59;17.10;99.90
2571;DHT22;1295;51.130;6.732;2022-10-19T13:52:47;17.10;99.90
2571;DHT22;1295;51.130;6.732;2022-10-19T13:55:42;17.40;99.90
2571;DHT22;1295;51.130;6.732;2022-10-19T13:58:16;17.50;99.90
2571;DHT22;1295;51.130;6.732;2022-10-19T14:03:15;17.10;99.90
2571;DHT22;1295;51.130;6.732;2022-10-19T14:05:46;17.10;99.90
2571;DHT22;1295;51.130;6.732;2022-10-19T14:11:03;17.30;99.90
2571;DHT22;1295;51.130;6.732;2022-10-19T14:13:28;17.10;99.90
2571;DHT22;1295;51.130;6.732;2022-10-19T14:15:55;17.10;99.90
2571;DHT22;1295;51.130;6.732;2022-10-19T14:18:24;16.90;99.90
2571;DHT22;1295;51.130;6.732;2022-10-19T14:20:57;17.20;99.90
2571;DHT22;1295;51.130;6.732;2022-10-19T14:23:24;17.40;99.90
2571;DHT22;1295;51.130;6.732;2022-10-19T14:26:00;17.30;99.90
2571;DHT22;1295;51.130;6.732;2022-10-19T14:28:25;17.10;99.90
2571;DHT22;1295;51.130;6.732;2022-10-19T14:30:58;17.00;99.90
2571;DHT22;1295;51.130;6.732;2022-10-19T14:33:22;17.00;99.90
2571;DHT22;1295;51.130;6.732;2022-10-19T14:35:48;17.00;99.90
2571;DHT22;1295;51.130;6.732;2022-10-19T14:38:17;16.90;99.90
2571;DHT22;1295;51.130;6.732;2022-10-19T14:40:40;16.90;99.90
2571;DHT22;1295;51.130;6.732;2022-10-19T14:43:18;16.80;99.90
2571;DHT22;1295;51.130;6.732;2022-10-19T14:45:42;16.70;99.90
2571;DHT22;1295;51.130;6.732;2022-10-19T14:48:14;16.80;99.90
2571;DHT22;1295;51.130;6.732;2022-10-19T14:50:38;16.80;99.90
2571;DHT22;1295;51.130;6.732;2022-10-19T14:53:15;16.90;99.90
2571;DHT22;1295;51.130;6.732;2022-10-19T14:55:34;16.90;99.90
2571;DHT22;1295;51.130;6.732;2022-10-19T14:58:00;17.10;99.90
2571;DHT22;1295;51.130;6.732;2022-10-19T15:00:25;17.30;99.90
2571;DHT22;1295;51.130;6.732;2022-10-19T15:03:00;17.30;99.90
2571;DHT22;1295;51.130;6.732;2022-10-19T15:05:27;17.20;99.90
2571;DHT22;1295;51.130;6.732;2022-10-19T15:07:51;17.20;99.90
2571;DHT22;1295;51.130;6.732;2022-10-19T15:10:21;17.20;99.90
2571;DHT22;1295;51.130;6.732;2022-10-19T15:12:45;17.20;99.90
2571;DHT22;1295;51.130;6.732;2022-10-19T15:15:25;17.30;99.90
2571;DHT22;1295;51.130;6.732;2022-10-19T15:17:54;17.30;99.90
2571;DHT22;1295;51.130;6.732;2022-10-19T15:20:25;17.10;99.90
2571;DHT22;1295;51.130;6.732;2022-10-19T15:22:49;17.10;99.90
2571;DHT22;1295;51.130;6.732;2022-10-19T15:25:22;17.10;99.90
2571;DHT22;1295;51.130;6.732;2022-10-19T15:27:43;17.10;99.90
2571;DHT22;1295;51.130;6.732;2022-10-19T15:30:27;17.00;99.90
2571;DHT22;1295;51.130;6.732;2022-10-19T15:32:55;17.00;99.90
2571;DHT22;1295;51.130;6.732;2022-10-19T15:35:27;17.00;99.90
2571;DHT22;1295;51.130;6.732;2022-10-19T15:37:57;17.00;99.90
2571;DHT22;1295;51.130;6.732;2022-10-19T15:40:32;17.00;99.90
2571;DHT22;1295;51.130;6.732;2022-10-19T15:42:54;16.90;99.90
2571;DHT22;1295;51.130;6.732;2022-10-19T15:45:28;16.90;99.90
2571;DHT22;1295;51.130;6.732;2022-10-19T15:48:14;16.80;99.90
2571;DHT22;1295;51.130;6.732;2022-10-19T15:50:41;16.70;99.90
2571;DHT22;1295;51.130;6.732;2022-10-19T15:53:04;16.80;99.90
2571;DHT22;1295;51.130;6.732;2022-10-19T15:55:30;16.70;99.90
2571;DHT22;1295;51.130;6.732;2022-10-19T15:57:57;16.70;99.90
2571;DHT22;1295;51.130;6.732;2022-10-19T16:00:23;16.80;99.90
2571;DHT22;1295;51.130;6.732;2022-10-19T16:02:49;16.80;99.90
2571;DHT22;1295;51.130;6.732;2022-10-19T16:05:15;16.70;99.90
2571;DHT22;1295;51.130;6.732;2022-10-19T16:07:41;16.80;99.90
2571;DHT22;1295;51.130;6.732;2022-10-19T16:10:12;16.70;99.90
2571;DHT22;1295;51.130;6.732;2022-10-19T16:12:33;16.70;99.90
2571;DHT22;1295;51.130;6.732;2022-10-19T16:14:59;16.70;99.90
2571;DHT22;1295;51.130;6.732;2022-10-19T16:17:25;16.70;99.90
2571;DHT22;1295;51.130;6.732;2022-10-19T16:19:50;16.60;99.90
2571;DHT22;1295;51.130;6.732;2022-10-19T16:22:16;16.60;99.90
2571;DHT22;1295;51.130;6.732;2022-10-19T16:24:42;16.60;99.90
2571;DHT22;1295;51.130;6.732;2022-10-19T16:27:07;16.60;99.90
2571;DHT22;1295;51.130;6.732;2022-10-19T16:29:33;16.60;99.90
2571;DHT22;1295;51.130;6.732;2022-10-19T16:31:58;16.60;99.90
2571;DHT22;1295;51.130;6.732;2022-10-19T16:34:25;16.50;99.90
2571;DHT22;1295;51.130;6.732;2022-10-19T16:36:50;16.60;99.90
2571;DHT22;1295;51.130;6.732;2022-10-19T16:39:16;16.60;99.90
2571;DHT22;1295;51.130;6.732;2022-10-19T16:41:42;16.60;99.90